True Blue, Vermont
Current Conditions -  °F | °C
As of 3:15 PM on Thursday 30 Oct 2014 (Local Time) from KRUT Reporting Station
Overcast Overcast  
Wind Chill: 42°   Ceiling: 3600
Heat Index: 46°   Visibility: 10mi
Dew Point: 37°   Wind: 8mph
Humidity: 71%   Direction: 350°N
Pressure: 29.94"   Gusts: NA
Location:  43.6518°N, 73.0368°W
Report Text: KRUT 301915Z 35007KT 10SM SCT029 OVC036 08/03 A2994 RMK AO1
Loading
Personal Weather Stations






























Interactive Weather Map
Tropical Storm Tracking
New forecast layout! Learn more

10-Day Weather Forecast

Advertisements
Track Severe Weather on mobile